sensor_id;sensor_type;location;lat;lon;timestamp;temperature;humidity
13231;DHT22;6681;53.254;10.398;2022-08-19T00:01:20;20.90;99.90
13231;DHT22;6681;53.254;10.398;2022-08-19T00:03:46;20.90;99.90
13231;DHT22;6681;53.254;10.398;2022-08-19T00:06:11;20.90;99.90
13231;DHT22;6681;53.254;10.398;2022-08-19T00:08:37;20.90;99.90
13231;DHT22;6681;53.254;10.398;2022-08-19T00:11:03;20.90;99.90
13231;DHT22;6681;53.254;10.398;2022-08-19T00:13:29;20.90;99.90
13231;DHT22;6681;53.254;10.398;2022-08-19T00:15:55;20.90;99.90
13231;DHT22;6681;53.254;10.398;2022-08-19T00:18:21;20.90;99.90
13231;DHT22;6681;53.254;10.398;2022-08-19T00:20:47;20.80;99.90
13231;DHT22;6681;53.254;10.398;2022-08-19T00:23:13;20.80;99.90
13231;DHT22;6681;53.254;10.398;2022-08-19T00:25:40;20.70;99.90
13231;DHT22;6681;53.254;10.398;2022-08-19T00:28:06;20.70;99.90
13231;DHT22;6681;53.254;10.398;2022-08-19T00:30:31;20.70;99.90
13231;DHT22;6681;53.254;10.398;2022-08-19T00:32:57;20.70;99.90
13231;DHT22;6681;53.254;10.398;2022-08-19T00:35:24;20.60;99.90
13231;DHT22;6681;53.254;10.398;2022-08-19T00:37:52;20.60;99.90
13231;DHT22;6681;53.254;10.398;2022-08-19T00:40:19;20.60;99.90
13231;DHT22;6681;53.254;10.398;2022-08-19T00:42:45;20.50;99.90
13231;DHT22;6681;53.254;10.398;2022-08-19T00:45:16;20.50;99.90
13231;DHT22;6681;53.254;10.398;2022-08-19T00:47:43;20.50;99.90
13231;DHT22;6681;53.254;10.398;2022-08-19T00:50:11;20.50;99.90
13231;DHT22;6681;53.254;10.398;2022-08-19T00:52:41;20.50;99.90
13231;DHT22;6681;53.254;10.398;2022-08-19T00:55:18;20.50;99.90
13231;DHT22;6681;53.254;10.398;2022-08-19T00:57:50;20.50;99.90
13231;DHT22;6681;53.254;10.398;2022-08-19T01:00:18;20.50;99.90
13231;DHT22;6681;53.254;10.398;2022-08-19T01:02:44;20.40;99.90
13231;DHT22;6681;53.254;10.398;2022-08-19T01:05:16;20.40;99.90
13231;DHT22;6681;53.254;10.398;2022-08-19T01:07:44;20.40;99.90
13231;DHT22;6681;53.254;10.398;2022-08-19T01:10:18;20.50;99.90
13231;DHT22;6681;53.254;10.398;2022-08-19T01:12:46;20.50;99.90
13231;DHT22;6681;53.254;10.398;2022-08-19T01:15:16;20.40;99.90
13231;DHT22;6681;53.254;10.398;2022-08-19T01:17:44;20.40;99.90
13231;DHT22;6681;53.254;10.398;2022-08-19T01:20:19;20.40;99.90
13231;DHT22;6681;53.254;10.398;2022-08-19T01:22:49;20.40;99.90
13231;DHT22;6681;53.254;10.398;2022-08-19T01:25:17;20.40;99.90
13231;DHT22;6681;53.254;10.398;2022-08-19T01:27:46;20.40;99.90
13231;DHT22;6681;53.254;10.398;2022-08-19T01:30:24;20.40;99.90
13231;DHT22;6681;53.254;10.398;2022-08-19T01:32:51;20.40;99.90
13231;DHT22;6681;53.254;10.398;2022-08-19T01:35:17;20.30;99.90
13231;DHT22;6681;53.254;10.398;2022-08-19T01:38:01;20.30;99.90
13231;DHT22;6681;53.254;10.398;2022-08-19T01:40:32;20.30;99.90
13231;DHT22;6681;53.254;10.398;2022-08-19T01:42:59;20.30;99.90
13231;DHT22;6681;53.254;10.398;2022-08-19T01:45:26;20.30;99.90
13231;DHT22;6681;53.254;10.398;2022-08-19T01:47:53;20.20;99.90
13231;DHT22;6681;53.254;10.398;2022-08-19T01:50:20;20.20;99.90
13231;DHT22;6681;53.254;10.398;2022-08-19T01:52:45;20.20;99.90
13231;DHT22;6681;53.254;10.398;2022-08-19T01:55:16;20.20;99.90
13231;DHT22;6681;53.254;10.398;2022-08-19T01:57:45;20.20;99.90
13231;DHT22;6681;53.254;10.398;2022-08-19T02:00:14;20.20;99.90
13231;DHT22;6681;53.254;10.398;2022-08-19T02:02:41;20.20;99.90
13231;DHT22;6681;53.254;10.398;2022-08-19T02:05:08;20.20;99.90
13231;DHT22;6681;53.254;10.398;2022-08-19T02:07:34;20.20;99.90
13231;DHT22;6681;53.254;10.398;2022-08-19T02:10:07;20.20;99.90
13231;DHT22;6681;53.254;10.398;2022-08-19T02:12:34;20.20;99.90
13231;DHT22;6681;53.254;10.398;2022-08-19T02:15:00;20.20;99.90
13231;DHT22;6681;53.254;10.398;2022-08-19T02:17:28;20.10;99.90
13231;DHT22;6681;53.254;10.398;2022-08-19T02:19:57;20.10;99.90
13231;DHT22;6681;53.254;10.398;2022-08-19T02:22:24;20.10;99.90
13231;DHT22;6681;53.254;10.398;2022-08-19T02:24:54;20.10;99.90
13231;DHT22;6681;53.254;10.398;2022-08-19T02:27:20;20.10;99.90
13231;DHT22;6681;53.254;10.398;2022-08-19T02:29:47;20.10;99.90
13231;DHT22;6681;53.254;10.398;2022-08-19T02:32:13;20.00;99.90
13231;DHT22;6681;53.254;10.398;2022-08-19T02:34:39;20.00;99.90
13231;DHT22;6681;53.254;10.398;2022-08-19T02:37:05;20.00;99.90
13231;DHT22;6681;53.254;10.398;2022-08-19T02:39:31;20.00;99.90
13231;DHT22;6681;53.254;10.398;2022-08-19T02:41:56;20.00;99.90
13231;DHT22;6681;53.254;10.398;2022-08-19T02:44:24;20.00;99.90
13231;DHT22;6681;53.254;10.398;2022-08-19T02:46:50;20.00;99.90
13231;DHT22;6681;53.254;10.398;2022-08-19T02:49:16;20.00;99.90
13231;DHT22;6681;53.254;10.398;2022-08-19T02:51:44;20.00;99.90
13231;DHT22;6681;53.254;10.398;2022-08-19T02:54:11;20.00;99.90
13231;DHT22;6681;53.254;10.398;2022-08-19T02:56:39;20.00;99.90
13231;DHT22;6681;53.254;10.398;2022-08-19T02:59:06;19.90;99.90
13231;DHT22;6681;53.254;10.398;2022-08-19T03:01:34;19.90;99.90
13231;DHT22;6681;53.254;10.398;2022-08-19T03:04:03;19.90;99.90
13231;DHT22;6681;53.254;10.398;2022-08-19T03:06:30;19.90;99.90
13231;DHT22;6681;53.254;10.398;2022-08-19T03:08:56;19.90;99.90
13231;DHT22;6681;53.254;10.398;2022-08-19T03:11:25;19.90;99.90
13231;DHT22;6681;53.254;10.398;2022-08-19T03:13:51;19.80;99.90
13231;DHT22;6681;53.254;10.398;2022-08-19T03:16:18;19.70;99.90
13231;DHT22;6681;53.254;10.398;2022-08-19T03:18:44;19.70;99.90
13231;DHT22;6681;53.254;10.398;2022-08-19T03:21:16;19.70;99.90
13231;DHT22;6681;53.254;10.398;2022-08-19T03:23:41;19.80;99.90
13231;DHT22;6681;53.254;10.398;2022-08-19T03:26:07;19.80;99.90
13231;DHT22;6681;53.254;10.398;2022-08-19T03:28:33;19.90;99.90
13231;DHT22;6681;53.254;10.398;2022-08-19T03:31:08;19.80;99.90
13231;DHT22;6681;53.254;10.398;2022-08-19T03:33:35;19.80;99.90
13231;DHT22;6681;53.254;10.398;2022-08-19T03:36:27;19.80;99.90
13231;DHT22;6681;53.254;10.398;2022-08-19T03:38:56;19.80;99.90
13231;DHT22;6681;53.254;10.398;2022-08-19T03:41:25;19.80;99.90
13231;DHT22;6681;53.254;10.398;2022-08-19T03:43:52;19.80;99.90
13231;DHT22;6681;53.254;10.398;2022-08-19T03:46:27;19.90;99.90
13231;DHT22;6681;53.254;10.398;2022-08-19T03:48:54;19.80;99.90
13231;DHT22;6681;53.254;10.398;2022-08-19T03:51:29;19.80;99.90
13231;DHT22;6681;53.254;10.398;2022-08-19T03:53:57;19.80;99.90
13231;DHT22;6681;53.254;10.398;2022-08-19T03:56:23;19.90;99.90
13231;DHT22;6681;53.254;10.398;2022-08-19T03:58:51;19.90;99.90
13231;DHT22;6681;53.254;10.398;2022-08-19T04:01:21;19.90;99.90
13231;DHT22;6681;53.254;10.398;2022-08-19T04:03:48;19.90;99.90
13231;DHT22;6681;53.254;10.398;2022-08-19T04:08:40;19.90;99.90
13231;DHT22;6681;53.254;10.398;2022-08-19T04:11:08;19.90;99.90
13231;DHT22;6681;53.254;10.398;2022-08-19T04:13:34;19.90;99.90
13231;DHT22;6681;53.254;10.398;2022-08-19T04:16:00;19.90;99.90
13231;DHT22;6681;53.254;10.398;2022-08-19T04:18:25;19.80;99.90
13231;DHT22;6681;53.254;10.398;2022-08-19T04:20:51;19.80;99.90
13231;DHT22;6681;53.254;10.398;2022-08-19T04:23:17;19.80;99.90
13231;DHT22;6681;53.254;10.398;2022-08-19T04:25:44;19.80;99.90
13231;DHT22;6681;53.254;10.398;2022-08-19T04:28:12;19.80;99.90
13231;DHT22;6681;53.254;10.398;2022-08-19T04:30:43;19.90;99.90
13231;DHT22;6681;53.254;10.398;2022-08-19T04:33:10;19.80;99.90
13231;DHT22;6681;53.254;10.398;2022-08-19T04:35:41;19.80;99.90
13231;DHT22;6681;53.254;10.398;2022-08-19T04:38:08;19.80;99.90
13231;DHT22;6681;53.254;10.398;2022-08-19T04:40:34;19.80;99.90
13231;DHT22;6681;53.254;10.398;2022-08-19T04:43:18;19.80;99.90
13231;DHT22;6681;53.254;10.398;2022-08-19T04:45:45;19.80;99.90
13231;DHT22;6681;53.254;10.398;2022-08-19T04:48:11;19.80;99.90
13231;DHT22;6681;53.254;10.398;2022-08-19T04:50:40;19.80;99.90
13231;DHT22;6681;53.254;10.398;2022-08-19T04:53:07;19.80;99.90
13231;DHT22;6681;53.254;10.398;2022-08-19T04:55:33;19.80;99.90
13231;DHT22;6681;53.254;10.398;2022-08-19T04:58:01;19.80;99.90
13231;DHT22;6681;53.254;10.398;2022-08-19T05:00:27;19.80;99.90
13231;DHT22;6681;53.254;10.398;2022-08-19T05:02:53;19.80;99.90
13231;DHT22;6681;53.254;10.398;2022-08-19T05:05:18;19.80;99.90
13231;DHT22;6681;53.254;10.398;2022-08-19T05:07:45;19.70;99.90
13231;DHT22;6681;53.254;10.398;2022-08-19T05:10:10;19.80;99.90
13231;DHT22;6681;53.254;10.398;2022-08-19T05:12:36;19.80;99.90
13231;DHT22;6681;53.254;10.398;2022-08-19T05:15:04;19.80;99.90
13231;DHT22;6681;53.254;10.398;2022-08-19T05:17:30;19.80;99.90
13231;DHT22;6681;53.254;10.398;2022-08-19T05:19:55;19.70;99.90
13231;DHT22;6681;53.254;10.398;2022-08-19T05:22:41;19.80;99.90
13231;DHT22;6681;53.254;10.398;2022-08-19T05:25:13;19.70;99.90
13231;DHT22;6681;53.254;10.398;2022-08-19T05:27:40;19.80;99.90
13231;DHT22;6681;53.254;10.398;2022-08-19T05:30:06;19.80;99.90
13231;DHT22;6681;53.254;10.398;2022-08-19T05:32:31;19.80;99.90
13231;DHT22;6681;53.254;10.398;2022-08-19T05:34:57;19.80;99.90
13231;DHT22;6681;53.254;10.398;2022-08-19T05:37:23;19.80;99.90
13231;DHT22;6681;53.254;10.398;2022-08-19T05:39:51;19.80;99.90
13231;DHT22;6681;53.254;10.398;2022-08-19T05:42:17;19.80;99.90
13231;DHT22;6681;53.254;10.398;2022-08-19T05:44:45;19.90;99.90
13231;DHT22;6681;53.254;10.398;2022-08-19T05:47:13;19.80;99.90
13231;DHT22;6681;53.254;10.398;2022-08-19T05:49:40;19.80;99.90
13231;DHT22;6681;53.254;10.398;2022-08-19T05:52:11;19.80;99.90
13231;DHT22;6681;53.254;10.398;2022-08-19T05:54:38;19.80;99.90
13231;DHT22;6681;53.254;10.398;2022-08-19T05:57:06;19.80;99.90
13231;DHT22;6681;53.254;10.398;2022-08-19T05:59:32;19.80;99.90
13231;DHT22;6681;53.254;10.398;2022-08-19T06:01:59;19.90;99.90
13231;DHT22;6681;53.254;10.398;2022-08-19T06:04:25;19.90;99.90
13231;DHT22;6681;53.254;10.398;2022-08-19T06:06:53;19.90;99.90
13231;DHT22;6681;53.254;10.398;2022-08-19T06:09:20;20.00;99.90
13231;DHT22;6681;53.254;10.398;2022-08-19T06:11:52;19.90;99.90
13231;DHT22;6681;53.254;10.398;2022-08-19T06:14:24;20.00;99.90
13231;DHT22;6681;53.254;10.398;2022-08-19T06:16:50;20.00;99.90
13231;DHT22;6681;53.254;10.398;2022-08-19T06:19:20;20.00;99.90
13231;DHT22;6681;53.254;10.398;2022-08-19T06:21:48;20.00;99.90
13231;DHT22;6681;53.254;10.398;2022-08-19T06:24:18;19.90;99.90
13231;DHT22;6681;53.254;10.398;2022-08-19T06:26:46;20.00;99.90
13231;DHT22;6681;53.254;10.398;2022-08-19T06:29:14;20.00;99.90
13231;DHT22;6681;53.254;10.398;2022-08-19T06:31:43;20.00;99.90
13231;DHT22;6681;53.254;10.398;2022-08-19T06:34:09;20.10;99.90
13231;DHT22;6681;53.254;10.398;2022-08-19T06:36:41;20.10;99.90
13231;DHT22;6681;53.254;10.398;2022-08-19T06:39:12;20.10;99.90
13231;DHT22;6681;53.254;10.398;2022-08-19T06:41:41;20.00;99.90
13231;DHT22;6681;53.254;10.398;2022-08-19T06:44:08;20.10;99.90
13231;DHT22;6681;53.254;10.398;2022-08-19T06:46:35;20.10;99.90
13231;DHT22;6681;53.254;10.398;2022-08-19T06:49:01;20.10;99.90
13231;DHT22;6681;53.254;10.398;2022-08-19T06:51:28;20.00;99.90
13231;DHT22;6681;53.254;10.398;2022-08-19T06:53:55;20.10;99.90
13231;DHT22;6681;53.254;10.398;2022-08-19T06:56:24;20.10;99.90
13231;DHT22;6681;53.254;10.398;2022-08-19T06:58:51;20.10;99.90
13231;DHT22;6681;53.254;10.398;2022-08-19T07:01:19;20.00;99.90
13231;DHT22;6681;53.254;10.398;2022-08-19T07:03:44;20.00;99.90
13231;DHT22;6681;53.254;10.398;2022-08-19T07:06:13;20.00;99.90
13231;DHT22;6681;53.254;10.398;2022-08-19T07:08:40;20.00;99.90
13231;DHT22;6681;53.254;10.398;2022-08-19T07:11:10;20.00;99.90
13231;DHT22;6681;53.254;10.398;2022-08-19T07:13:37;20.00;99.90
13231;DHT22;6681;53.254;10.398;2022-08-19T07:16:07;19.90;99.90
13231;DHT22;6681;53.254;10.398;2022-08-19T07:18:34;19.90;99.90
13231;DHT22;6681;53.254;10.398;2022-08-19T07:21:27;19.90;99.90
13231;DHT22;6681;53.254;10.398;2022-08-19T07:23:56;19.90;99.90
13231;DHT22;6681;53.254;10.398;2022-08-19T07:26:27;19.90;99.90
13231;DHT22;6681;53.254;10.398;2022-08-19T07:28:54;20.00;99.90
13231;DHT22;6681;53.254;10.398;2022-08-19T07:31:23;20.00;99.90
13231;DHT22;6681;53.254;10.398;2022-08-19T07:33:51;20.00;99.90
13231;DHT22;6681;53.254;10.398;2022-08-19T07:36:20;20.00;99.90
13231;DHT22;6681;53.254;10.398;2022-08-19T07:38:48;20.00;99.90
13231;DHT22;6681;53.254;10.398;2022-08-19T07:41:18;20.00;99.90
13231;DHT22;6681;53.254;10.398;2022-08-19T07:43:44;20.10;99.90
13231;DHT22;6681;53.254;10.398;2022-08-19T07:46:11;20.00;99.90
13231;DHT22;6681;53.254;10.398;2022-08-19T07:48:40;20.00;99.90
13231;DHT22;6681;53.254;10.398;2022-08-19T07:51:07;20.00;99.90
13231;DHT22;6681;53.254;10.398;2022-08-19T07:53:34;19.90;99.90
13231;DHT22;6681;53.254;10.398;2022-08-19T07:56:01;20.00;99.90
13231;DHT22;6681;53.254;10.398;2022-08-19T07:58:31;19.90;99.90
13231;DHT22;6681;53.254;10.398;2022-08-19T08:00:58;19.90;99.90
13231;DHT22;6681;53.254;10.398;2022-08-19T08:03:24;20.00;99.90
13231;DHT22;6681;53.254;10.398;2022-08-19T08:06:10;20.00;99.90
13231;DHT22;6681;53.254;10.398;2022-08-19T08:08:55;20.00;99.90
13231;DHT22;6681;53.254;10.398;2022-08-19T08:11:44;20.00;99.90
13231;DHT22;6681;53.254;10.398;2022-08-19T08:14:15;20.00;99.90
13231;DHT22;6681;53.254;10.398;2022-08-19T08:16:41;19.90;99.90
13231;DHT22;6681;53.254;10.398;2022-08-19T08:19:09;20.00;99.90
13231;DHT22;6681;53.254;10.398;2022-08-19T08:21:35;20.00;99.90
13231;DHT22;6681;53.254;10.398;2022-08-19T08:24:01;20.00;99.90
13231;DHT22;6681;53.254;10.398;2022-08-19T08:26:27;20.00;99.90
13231;DHT22;6681;53.254;10.398;2022-08-19T08:28:53;20.00;99.90
13231;DHT22;6681;53.254;10.398;2022-08-19T08:31:19;20.00;99.90
13231;DHT22;6681;53.254;10.398;2022-08-19T08:33:45;20.00;99.90
13231;DHT22;6681;53.254;10.398;2022-08-19T08:36:11;20.00;99.90
13231;DHT22;6681;53.254;10.398;2022-08-19T08:38:40;20.00;99.90
13231;DHT22;6681;53.254;10.398;2022-08-19T08:43:52;20.00;99.90
13231;DHT22;6681;53.254;10.398;2022-08-19T08:49:37;19.90;99.90
13231;DHT22;6681;53.254;10.398;2022-08-19T08:54:49;19.90;99.90
13231;DHT22;6681;53.254;10.398;2022-08-19T08:59:50;20.00;99.90
13231;DHT22;6681;53.254;10.398;2022-08-19T09:02:19;19.90;99.90
13231;DHT22;6681;53.254;10.398;2022-08-19T09:04:45;19.90;99.90
13231;DHT22;6681;53.254;10.398;2022-08-19T09:09:52;18.80;99.90
13231;DHT22;6681;53.254;10.398;2022-08-19T09:12:56;20.00;99.90
13231;DHT22;6681;53.254;10.398;2022-08-19T09:15:47;19.90;99.90
13231;DHT22;6681;53.254;10.398;2022-08-19T09:18:14;19.90;99.90
13231;DHT22;6681;53.254;10.398;2022-08-19T09:20:40;19.90;99.90
13231;DHT22;6681;53.254;10.398;2022-08-19T09:23:06;19.90;99.90
13231;DHT22;6681;53.254;10.398;2022-08-19T09:25:31;19.90;99.90
13231;DHT22;6681;53.254;10.398;2022-08-19T09:28:00;20.00;99.90
13231;DHT22;6681;53.254;10.398;2022-08-19T09:30:31;19.90;99.90
13231;DHT22;6681;53.254;10.398;2022-08-19T09:32:58;20.00;99.90
13231;DHT22;6681;53.254;10.398;2022-08-19T09:35:28;20.00;99.90
13231;DHT22;6681;53.254;10.398;2022-08-19T09:37:55;20.00;99.90
13231;DHT22;6681;53.254;10.398;2022-08-19T09:40:21;20.00;99.90
13231;DHT22;6681;53.254;10.398;2022-08-19T09:42:46;20.00;99.90
13231;DHT22;6681;53.254;10.398;2022-08-19T09:45:14;20.00;99.90
13231;DHT22;6681;53.254;10.398;2022-08-19T09:47:40;20.00;99.90
13231;DHT22;6681;53.254;10.398;2022-08-19T09:50:09;20.00;99.90
13231;DHT22;6681;53.254;10.398;2022-08-19T09:52:35;20.10;99.90
13231;DHT22;6681;53.254;10.398;2022-08-19T09:55:08;20.10;99.90
13231;DHT22;6681;53.254;10.398;2022-08-19T09:57:35;20.10;99.90
13231;DHT22;6681;53.254;10.398;2022-08-19T10:00:03;20.00;99.90
13231;DHT22;6681;53.254;10.398;2022-08-19T10:02:29;20.10;99.90
13231;DHT22;6681;53.254;10.398;2022-08-19T10:04:55;20.00;99.90
13231;DHT22;6681;53.254;10.398;2022-08-19T10:07:39;20.00;99.90
13231;DHT22;6681;53.254;10.398;2022-08-19T10:10:06;20.10;99.90
13231;DHT22;6681;53.254;10.398;2022-08-19T10:12:33;20.10;99.90
13231;DHT22;6681;53.254;10.398;2022-08-19T10:15:00;20.10;99.90
13231;DHT22;6681;53.254;10.398;2022-08-19T10:17:26;20.10;99.90
13231;DHT22;6681;53.254;10.398;2022-08-19T10:19:52;20.20;99.90
13231;DHT22;6681;53.254;10.398;2022-08-19T10:22:18;20.20;99.90
13231;DHT22;6681;53.254;10.398;2022-08-19T10:24:45;20.20;99.90
13231;DHT22;6681;53.254;10.398;2022-08-19T10:27:11;20.20;99.90
13231;DHT22;6681;53.254;10.398;2022-08-19T10:29:38;20.20;99.90
13231;DHT22;6681;53.254;10.398;2022-08-19T10:32:06;20.20;99.90
13231;DHT22;6681;53.254;10.398;2022-08-19T10:34:32;20.30;99.90
13231;DHT22;6681;53.254;10.398;2022-08-19T10:36:59;20.30;99.90
13231;DHT22;6681;53.254;10.398;2022-08-19T10:39:26;20.40;99.90
13231;DHT22;6681;53.254;10.398;2022-08-19T10:41:55;20.40;99.90
13231;DHT22;6681;53.254;10.398;2022-08-19T10:44:22;20.50;99.90
13231;DHT22;6681;53.254;10.398;2022-08-19T10:46:49;20.50;99.90
13231;DHT22;6681;53.254;10.398;2022-08-19T10:49:15;20.50;99.90
13231;DHT22;6681;53.254;10.398;2022-08-19T10:51:42;20.50;99.90
13231;DHT22;6681;53.254;10.398;2022-08-19T10:54:27;20.50;99.90
13231;DHT22;6681;53.254;10.398;2022-08-19T10:57:14;20.50;99.90
13231;DHT22;6681;53.254;10.398;2022-08-19T10:59:40;20.50;99.90
13231;DHT22;6681;53.254;10.398;2022-08-19T11:02:08;20.50;99.90
13231;DHT22;6681;53.254;10.398;2022-08-19T11:04:36;20.50;99.90
13231;DHT22;6681;53.254;10.398;2022-08-19T11:07:03;20.50;99.90
13231;DHT22;6681;53.254;10.398;2022-08-19T11:09:29;20.60;99.90
13231;DHT22;6681;53.254;10.398;2022-08-19T11:11:54;20.60;99.90
13231;DHT22;6681;53.254;10.398;2022-08-19T11:14:22;20.60;99.90
13231;DHT22;6681;53.254;10.398;2022-08-19T11:16:51;20.70;99.90
13231;DHT22;6681;53.254;10.398;2022-08-19T11:19:21;20.70;99.90
13231;DHT22;6681;53.254;10.398;2022-08-19T11:21:49;20.70;99.90
13231;DHT22;6681;53.254;10.398;2022-08-19T11:24:18;20.70;99.90
13231;DHT22;6681;53.254;10.398;2022-08-19T11:26:45;20.80;99.90
13231;DHT22;6681;53.254;10.398;2022-08-19T11:29:12;20.80;99.90
13231;DHT22;6681;53.254;10.398;2022-08-19T11:31:41;20.90;99.90
13231;DHT22;6681;53.254;10.398;2022-08-19T11:34:10;20.90;99.90
13231;DHT22;6681;53.254;10.398;2022-08-19T11:36:39;20.90;99.90
13231;DHT22;6681;53.254;10.398;2022-08-19T11:39:07;21.00;99.90
13231;DHT22;6681;53.254;10.398;2022-08-19T11:41:33;21.00;99.90
13231;DHT22;6681;53.254;10.398;2022-08-19T11:43:59;21.00;99.90
13231;DHT22;6681;53.254;10.398;2022-08-19T11:46:26;21.10;99.90
13231;DHT22;6681;53.254;10.398;2022-08-19T11:48:58;21.10;99.90
13231;DHT22;6681;53.254;10.398;2022-08-19T11:51:26;21.10;99.90
13231;DHT22;6681;53.254;10.398;2022-08-19T11:53:53;21.10;99.90
13231;DHT22;6681;53.254;10.398;2022-08-19T11:56:20;21.10;99.90
13231;DHT22;6681;53.254;10.398;2022-08-19T11:58:46;21.20;99.90
13231;DHT22;6681;53.254;10.398;2022-08-19T12:01:15;21.20;99.90
13231;DHT22;6681;53.254;10.398;2022-08-19T12:03:42;21.30;99.90
13231;DHT22;6681;53.254;10.398;2022-08-19T12:06:11;21.30;99.90
13231;DHT22;6681;53.254;10.398;2022-08-19T12:08:40;21.30;99.90
13231;DHT22;6681;53.254;10.398;2022-08-19T12:11:07;21.30;99.90
13231;DHT22;6681;53.254;10.398;2022-08-19T12:13:36;21.30;99.90
13231;DHT22;6681;53.254;10.398;2022-08-19T12:16:23;21.30;99.90
13231;DHT22;6681;53.254;10.398;2022-08-19T12:18:50;21.30;99.90
13231;DHT22;6681;53.254;10.398;2022-08-19T12:21:21;21.30;99.90
13231;DHT22;6681;53.254;10.398;2022-08-19T12:23:48;21.30;99.90
13231;DHT22;6681;53.254;10.398;2022-08-19T12:26:15;21.40;99.90
13231;DHT22;6681;53.254;10.398;2022-08-19T12:28:41;21.40;99.90
13231;DHT22;6681;53.254;10.398;2022-08-19T12:31:08;21.50;99.90
13231;DHT22;6681;53.254;10.398;2022-08-19T12:33:34;21.50;99.90
13231;DHT22;6681;53.254;10.398;2022-08-19T12:36:03;21.60;99.90
13231;DHT22;6681;53.254;10.398;2022-08-19T12:38:29;21.60;99.90
13231;DHT22;6681;53.254;10.398;2022-08-19T12:40:55;21.60;99.90
13231;DHT22;6681;53.254;10.398;2022-08-19T12:43:21;21.60;99.90
13231;DHT22;6681;53.254;10.398;2022-08-19T12:45:46;21.70;99.90
13231;DHT22;6681;53.254;10.398;2022-08-19T12:48:13;21.70;99.90
13231;DHT22;6681;53.254;10.398;2022-08-19T12:50:40;21.70;99.90
13231;DHT22;6681;53.254;10.398;2022-08-19T12:53:06;21.70;99.90
13231;DHT22;6681;53.254;10.398;2022-08-19T12:55:32;21.70;99.90
13231;DHT22;6681;53.254;10.398;2022-08-19T12:57:58;21.70;99.90
13231;DHT22;6681;53.254;10.398;2022-08-19T13:00:25;21.80;99.90
13231;DHT22;6681;53.254;10.398;2022-08-19T13:02:52;21.80;99.90
13231;DHT22;6681;53.254;10.398;2022-08-19T13:05:22;21.80;99.90
13231;DHT22;6681;53.254;10.398;2022-08-19T13:07:49;21.80;99.90
13231;DHT22;6681;53.254;10.398;2022-08-19T13:10:20;21.90;99.90
13231;DHT22;6681;53.254;10.398;2022-08-19T13:12:49;22.00;99.90
13231;DHT22;6681;53.254;10.398;2022-08-19T13:15:15;22.00;99.90
13231;DHT22;6681;53.254;10.398;2022-08-19T13:17:45;22.10;99.90
13231;DHT22;6681;53.254;10.398;2022-08-19T13:20:13;22.10;99.90
13231;DHT22;6681;53.254;10.398;2022-08-19T13:22:39;22.20;99.90
13231;DHT22;6681;53.254;10.398;2022-08-19T13:25:06;22.30;99.90
13231;DHT22;6681;53.254;10.398;2022-08-19T13:27:32;22.30;99.90
13231;DHT22;6681;53.254;10.398;2022-08-19T13:29:58;22.40;99.90
13231;DHT22;6681;53.254;10.398;2022-08-19T13:32:43;22.40;99.90
13231;DHT22;6681;53.254;10.398;2022-08-19T13:35:27;22.50;99.90
13231;DHT22;6681;53.254;10.398;2022-08-19T13:37:52;22.50;99.90
13231;DHT22;6681;53.254;10.398;2022-08-19T13:40:20;22.50;99.90
13231;DHT22;6681;53.254;10.398;2022-08-19T13:42:50;22.60;99.90
13231;DHT22;6681;53.254;10.398;2022-08-19T13:45:18;22.70;99.90
13231;DHT22;6681;53.254;10.398;2022-08-19T13:47:46;22.70;99.90
13231;DHT22;6681;53.254;10.398;2022-08-19T13:50:14;22.80;99.90
13231;DHT22;6681;53.254;10.398;2022-08-19T13:52:41;22.80;99.90
13231;DHT22;6681;53.254;10.398;2022-08-19T13:55:08;22.80;99.90
13231;DHT22;6681;53.254;10.398;2022-08-19T13:57:34;22.90;99.90
13231;DHT22;6681;53.254;10.398;2022-08-19T14:00:01;23.00;99.90
13231;DHT22;6681;53.254;10.398;2022-08-19T14:02:28;23.10;99.90
13231;DHT22;6681;53.254;10.398;2022-08-19T14:04:53;23.10;99.90
13231;DHT22;6681;53.254;10.398;2022-08-19T14:07:19;23.10;99.90
13231;DHT22;6681;53.254;10.398;2022-08-19T14:09:44;23.10;99.90
13231;DHT22;6681;53.254;10.398;2022-08-19T14:12:10;23.10;99.90
13231;DHT22;6681;53.254;10.398;2022-08-19T14:14:39;23.10;99.90
13231;DHT22;6681;53.254;10.398;2022-08-19T14:17:08;23.10;99.90
13231;DHT22;6681;53.254;10.398;2022-08-19T14:19:35;23.00;99.90
13231;DHT22;6681;53.254;10.398;2022-08-19T14:22:01;23.00;99.90
13231;DHT22;6681;53.254;10.398;2022-08-19T14:24:27;23.00;99.90
13231;DHT22;6681;53.254;10.398;2022-08-19T14:26:52;22.90;99.90
13231;DHT22;6681;53.254;10.398;2022-08-19T14:29:18;22.90;99.90
13231;DHT22;6681;53.254;10.398;2022-08-19T14:31:44;22.90;99.90
13231;DHT22;6681;53.254;10.398;2022-08-19T14:34:10;22.90;99.90
13231;DHT22;6681;53.254;10.398;2022-08-19T14:36:36;23.00;99.90
13231;DHT22;6681;53.254;10.398;2022-08-19T14:39:02;23.10;99.90
13231;DHT22;6681;53.254;10.398;2022-08-19T14:41:28;23.20;99.90
13231;DHT22;6681;53.254;10.398;2022-08-19T14:43:56;23.50;99.90
13231;DHT22;6681;53.254;10.398;2022-08-19T14:46:26;23.70;99.90
13231;DHT22;6681;53.254;10.398;2022-08-19T14:48:53;23.90;99.90
13231;DHT22;6681;53.254;10.398;2022-08-19T14:51:21;24.00;99.90
13231;DHT22;6681;53.254;10.398;2022-08-19T14:53:47;24.00;99.90
13231;DHT22;6681;53.254;10.398;2022-08-19T14:56:18;24.10;99.90
13231;DHT22;6681;53.254;10.398;2022-08-19T14:58:45;24.10;99.90
13231;DHT22;6681;53.254;10.398;2022-08-19T15:01:11;24.10;99.90
13231;DHT22;6681;53.254;10.398;2022-08-19T15:03:37;24.00;99.90
13231;DHT22;6681;53.254;10.398;2022-08-19T15:06:04;24.00;99.90
13231;DHT22;6681;53.254;10.398;2022-08-19T15:08:31;24.00;99.90
13231;DHT22;6681;53.254;10.398;2022-08-19T15:10:58;24.10;99.90
13231;DHT22;6681;53.254;10.398;2022-08-19T15:13:26;24.10;99.90
13231;DHT22;6681;53.254;10.398;2022-08-19T15:15:53;24.10;99.90
13231;DHT22;6681;53.254;10.398;2022-08-19T15:18:19;24.20;99.90
13231;DHT22;6681;53.254;10.398;2022-08-19T15:20:46;24.20;99.90
13231;DHT22;6681;53.254;10.398;2022-08-19T15:23:13;24.20;99.90
13231;DHT22;6681;53.254;10.398;2022-08-19T15:25:40;24.20;99.90
13231;DHT22;6681;53.254;10.398;2022-08-19T15:28:07;24.30;99.90
13231;DHT22;6681;53.254;10.398;2022-08-19T15:30:37;24.50;99.90
13231;DHT22;6681;53.254;10.398;2022-08-19T15:33:02;24.70;99.90
13231;DHT22;6681;53.254;10.398;2022-08-19T15:35:28;24.80;99.90
13231;DHT22;6681;53.254;10.398;2022-08-19T15:37:55;24.80;99.90
13231;DHT22;6681;53.254;10.398;2022-08-19T15:40:23;24.90;99.90
13231;DHT22;6681;53.254;10.398;2022-08-19T15:42:49;24.90;99.90
13231;DHT22;6681;53.254;10.398;2022-08-19T15:45:17;25.00;99.90
13231;DHT22;6681;53.254;10.398;2022-08-19T15:47:43;25.00;99.90
13231;DHT22;6681;53.254;10.398;2022-08-19T15:50:13;24.90;99.90
13231;DHT22;6681;53.254;10.398;2022-08-19T15:52:59;24.90;99.90